Time;durP1;ratioP1;P1;durP2;ratioP2;P2;SDS_P1;SDS_P2;PMS_P1;PMS_P2;Temp;Humidity;BMP_temperature;BMP_pressure;BME280_temperature;BME280_humidity;BME280_pressure;Samples;Min_cycle;Max_cycle;Signal;HPM_P1;HPM_P2
2023/01/25 00:01:56;;;;;;;0.10;0.10;;;;;;;;;;7378608;19;20711;-71
2023/01/25 00:04:28;;;;;;;0.10;0.10;;;;;;;;;;7376092;19;20654;-71
2023/01/25 00:06:57;;;;;;;0.10;0.10;;;;;;;;;;7379709;19;20656;-71
2023/01/25 00:09:27;;;;;;;0.10;0.10;;;;;;;;;;7378650;19;20626;-71
2023/01/25 00:11:57;;;;;;;0.10;0.10;;;;;;;;;;7377703;19;20715;-71
2023/01/25 00:14:26;;;;;;;0.10;0.10;;;;;;;;;;7378965;19;20651;-71
2023/01/25 00:16:55;;;;;;;0.10;0.10;;;;;;;;;;7380532;19;20681;-71
2023/01/25 00:19:24;;;;;;;0.10;0.10;;;;;;;;;;7378534;19;20623;-71
2023/01/25 00:21:55;;;;;;;0.00;0.00;;;;;;;;;;7379263;19;20725;-71
2023/01/25 00:24:24;;;;;;;0.10;0.10;;;;;;;;;;7379836;19;20725;-71
2023/01/25 00:26:54;;;;;;;0.10;0.10;;;;;;;;;;7378911;19;20631;-72
2023/01/25 00:29:22;;;;;;;0.10;0.10;;;;;;;;;;7376844;19;20623;-71
2023/01/25 00:32:01;;;;;;;0.10;0.10;;;;;;;;;;7376879;19;20670;-71
2023/01/25 00:34:45;;;;;;;0.10;0.10;;;;;;;;;;7375449;19;20626;-71
2023/01/25 00:37:22;;;;;;;0.10;0.10;;;;;;;;;;7379616;19;20627;-71
2023/01/25 00:39:51;;;;;;;0.10;0.10;;;;;;;;;;7380094;19;20725;-71
2023/01/25 00:42:21;;;;;;;0.10;0.10;;;;;;;;;;7377391;19;20663;-71
2023/01/25 00:44:50;;;;;;;0.10;0.10;;;;;;;;;;7379851;19;20626;-71
2023/01/25 00:47:19;;;;;;;0.10;0.10;;;;;;;;;;7379782;19;20685;-71
2023/01/25 00:49:49;;;;;;;0.10;0.10;;;;;;;;;;7379185;19;20677;-71
2023/01/25 00:52:21;;;;;;;0.10;0.10;;;;;;;;;;7377632;19;20647;-71
2023/01/25 00:54:51;;;;;;;0.10;0.10;;;;;;;;;;7378342;19;20618;-72
2023/01/25 00:57:19;;;;;;;0.10;0.10;;;;;;;;;;7380191;19;20630;-71
2023/01/25 00:59:48;;;;;;;0.10;0.10;;;;;;;;;;7378428;19;20634;-71
2023/01/25 01:02:17;;;;;;;0.10;0.10;;;;;;;;;;7376912;19;20789;-71
2023/01/25 01:04:46;;;;;;;0.10;0.10;;;;;;;;;;7379836;19;20631;-71
2023/01/25 01:07:16;;;;;;;0.10;0.10;;;;;;;;;;7378278;19;20674;-71
2023/01/25 01:09:47;;;;;;;0.10;0.10;;;;;;;;;;7379100;19;20638;-71
2023/01/25 01:12:16;;;;;;;0.10;0.10;;;;;;;;;;7377485;19;20658;-71
2023/01/25 01:14:45;;;;;;;0.10;0.10;;;;;;;;;;7379031;19;20627;-71
2023/01/25 01:17:14;;;;;;;0.10;0.10;;;;;;;;;;7377895;19;20627;-71
2023/01/25 01:19:43;;;;;;;0.10;0.10;;;;;;;;;;7378517;19;20652;-71
2023/01/25 01:22:12;;;;;;;0.10;0.10;;;;;;;;;;7376596;19;20674;-72
2023/01/25 01:24:42;;;;;;;0.20;0.20;;;;;;;;;;7386486;19;20607;-71
2023/01/25 01:27:13;;;;;;;0.10;0.10;;;;;;;;;;7387058;19;20615;-71
2023/01/25 01:29:42;;;;;;;0.10;0.10;;;;;;;;;;7385380;19;20673;-71
2023/01/25 01:32:11;;;;;;;0.10;0.10;;;;;;;;;;7383786;19;20647;-71
2023/01/25 01:34:40;;;;;;;0.10;0.10;;;;;;;;;;7384995;19;20737;-71
2023/01/25 01:37:09;;;;;;;0.10;0.10;;;;;;;;;;7385276;19;20677;-71
2023/01/25 01:39:38;;;;;;;0.10;0.10;;;;;;;;;;7382073;19;20630;-71
2023/01/25 01:42:07;;;;;;;0.10;0.10;;;;;;;;;;7381347;19;20670;-71
2023/01/25 01:44:48;;;;;;;0.10;0.10;;;;;;;;;;7381552;19;20657;-71
2023/01/25 01:47:20;;;;;;;0.10;0.10;;;;;;;;;;7381950;19;20704;-71
2023/01/25 01:49:52;;;;;;;0.10;0.10;;;;;;;;;;7383675;19;20638;-71
2023/01/25 01:52:22;;;;;;;0.10;0.10;;;;;;;;;;7380607;19;20662;-71
2023/01/25 01:54:54;;;;;;;0.10;0.10;;;;;;;;;;7377532;19;20626;-71
2023/01/25 01:57:25;;;;;;;0.10;0.10;;;;;;;;;;7383072;19;20623;-71
2023/01/25 02:00:00;;;;;;;0.10;0.10;;;;;;;;;;7383675;19;20729;-71
2023/01/25 02:02:29;;;;;;;0.10;0.10;;;;;;;;;;7380383;19;20658;-71
2023/01/25 02:05:00;;;;;;;0.10;0.10;;;;;;;;;;7383397;19;20643;-71
2023/01/25 02:07:32;;;;;;;0.10;0.10;;;;;;;;;;7382752;19;20611;-71
2023/01/25 02:10:01;;;;;;;0.10;0.10;;;;;;;;;;7382927;19;20657;-71
2023/01/25 02:12:31;;;;;;;0.10;0.10;;;;;;;;;;7380449;19;20666;-71
2023/01/25 02:15:02;;;;;;;0.10;0.10;;;;;;;;;;7384138;19;20615;-71
2023/01/25 02:17:32;;;;;;;0.10;0.10;;;;;;;;;;7382481;19;20614;-71
2023/01/25 02:20:04;;;;;;;0.10;0.10;;;;;;;;;;7381982;19;20627;-71
2023/01/25 02:22:34;;;;;;;0.10;0.10;;;;;;;;;;7382075;19;20655;-72
2023/01/25 02:25:10;;;;;;;0.10;0.10;;;;;;;;;;7382716;19;20670;-71
2023/01/25 02:27:41;;;;;;;0.10;0.10;;;;;;;;;;7384591;19;20634;-71
2023/01/25 02:30:11;;;;;;;0.10;0.10;;;;;;;;;;7381550;19;20649;-71
2023/01/25 02:32:40;;;;;;;0.10;0.10;;;;;;;;;;7379047;19;20642;-71
2023/01/25 02:35:14;;;;;;;0.00;0.00;;;;;;;;;;7380129;19;20643;-71
2023/01/25 02:37:43;;;;;;;0.10;0.10;;;;;;;;;;7382458;19;20619;-70
2023/01/25 02:40:15;;;;;;;0.10;0.10;;;;;;;;;;7381498;19;20725;-71
2023/01/25 02:42:46;;;;;;;0.10;0.10;;;;;;;;;;7380879;19;20666;-72
2023/01/25 02:45:18;;;;;;;0.10;0.10;;;;;;;;;;7381616;19;20641;-71
2023/01/25 02:47:47;;;;;;;0.10;0.10;;;;;;;;;;7382056;19;20670;-71
2023/01/25 02:50:17;;;;;;;0.10;0.10;;;;;;;;;;7381771;19;20650;-71
2023/01/25 02:52:45;;;;;;;0.10;0.10;;;;;;;;;;7381472;19;20708;-71
2023/01/25 02:55:17;;;;;;;0.10;0.10;;;;;;;;;;7380934;19;20701;-71
2023/01/25 02:57:47;;;;;;;0.10;0.10;;;;;;;;;;7381430;19;20625;-71
2023/01/25 03:00:18;;;;;;;0.10;0.10;;;;;;;;;;7380124;19;20649;-71
2023/01/25 03:02:48;;;;;;;0.10;0.10;;;;;;;;;;7378483;19;20700;-71
2023/01/25 03:05:17;;;;;;;0.10;0.10;;;;;;;;;;7379864;19;20635;-71
2023/01/25 03:07:47;;;;;;;0.10;0.10;;;;;;;;;;7380673;19;20641;-71
2023/01/25 03:10:18;;;;;;;0.10;0.10;;;;;;;;;;7378138;19;20657;-71
2023/01/25 03:12:48;;;;;;;0.10;0.10;;;;;;;;;;7378528;19;20709;-71
2023/01/25 03:15:17;;;;;;;0.10;0.10;;;;;;;;;;7377704;19;20630;-71
2023/01/25 03:17:46;;;;;;;0.10;0.10;;;;;;;;;;7379658;19;20626;-71
2023/01/25 03:20:15;;;;;;;0.10;0.10;;;;;;;;;;7378127;19;20753;-71
2023/01/25 03:22:46;;;;;;;0.10;0.10;;;;;;;;;;7378144;19;20793;-71
2023/01/25 03:25:15;;;;;;;0.10;0.10;;;;;;;;;;7378322;19;20619;-71
2023/01/25 03:27:58;;;;;;;0.00;0.00;;;;;;;;;;7379765;19;20669;-71
2023/01/25 03:30:27;;;;;;;0.10;0.10;;;;;;;;;;7377853;19;20665;-71
2023/01/25 03:32:56;;;;;;;0.10;0.10;;;;;;;;;;7376862;19;20666;-71
2023/01/25 03:35:25;;;;;;;0.10;0.10;;;;;;;;;;7377323;19;20635;-71
2023/01/25 03:37:55;;;;;;;0.10;0.10;;;;;;;;;;7378629;19;20623;-71
2023/01/25 03:40:25;;;;;;;0.10;0.10;;;;;;;;;;7377550;19;20769;-71
2023/01/25 03:42:57;;;;;;;0.10;0.10;;;;;;;;;;7375563;19;20666;-71
2023/01/25 03:45:26;;;;;;;0.10;0.10;;;;;;;;;;7377186;19;20611;-71
2023/01/25 03:47:55;;;;;;;0.10;0.10;;;;;;;;;;7377687;19;20680;-71
2023/01/25 03:50:24;;;;;;;0.10;0.10;;;;;;;;;;7377188;19;20618;-71
2023/01/25 03:53:00;;;;;;;0.10;0.10;;;;;;;;;;7377133;19;20792;-71
2023/01/25 03:55:30;;;;;;;0.10;0.10;;;;;;;;;;7374827;19;20669;-71
2023/01/25 03:58:01;;;;;;;0.10;0.10;;;;;;;;;;7378653;19;20635;-71
2023/01/25 04:00:30;;;;;;;0.10;0.10;;;;;;;;;;7375606;19;20619;-71
2023/01/25 04:03:02;;;;;;;0.10;0.10;;;;;;;;;;7375461;19;20730;-71
2023/01/25 04:05:32;;;;;;;0.10;0.10;;;;;;;;;;7375017;19;20623;-71
2023/01/25 04:08:02;;;;;;;0.10;0.10;;;;;;;;;;7378063;19;20615;-71
2023/01/25 04:10:38;;;;;;;0.10;0.10;;;;;;;;;;7376934;19;20626;-71
2023/01/25 04:13:10;;;;;;;0.10;0.10;;;;;;;;;;7376734;19;20696;-71
2023/01/25 04:15:39;;;;;;;0.10;0.10;;;;;;;;;;7375826;19;20630;-71
2023/01/25 04:18:16;;;;;;;0.10;0.10;;;;;;;;;;7377981;19;20626;-71
2023/01/25 04:20:46;;;;;;;0.10;0.10;;;;;;;;;;7377473;19;20627;-71
2023/01/25 04:23:16;;;;;;;0.10;0.10;;;;;;;;;;7378554;19;20657;-71
2023/01/25 04:25:46;;;;;;;0.10;0.10;;;;;;;;;;7375641;19;20603;-71
2023/01/25 04:28:20;;;;;;;0.10;0.10;;;;;;;;;;7375533;19;20665;-71
2023/01/25 04:30:50;;;;;;;0.10;0.10;;;;;;;;;;7376400;19;20614;-71
2023/01/25 04:33:20;;;;;;;0.10;0.10;;;;;;;;;;7376933;19;20633;-71
2023/01/25 04:35:49;;;;;;;0.10;0.10;;;;;;;;;;7375471;19;20739;-71
2023/01/25 04:38:20;;;;;;;0.10;0.10;;;;;;;;;;7378832;19;20623;-71
2023/01/25 04:40:49;;;;;;;0.10;0.10;;;;;;;;;;7379432;19;20615;-71
2023/01/25 04:43:21;;;;;;;0.10;0.10;;;;;;;;;;7378281;19;20635;-71
2023/01/25 04:45:53;;;;;;;0.13;0.13;;;;;;;;;;7377894;19;20668;-71
2023/01/25 04:48:27;;;;;;;0.10;0.10;;;;;;;;;;7378174;19;20618;-71
2023/01/25 04:51:00;;;;;;;0.10;0.10;;;;;;;;;;7376419;19;20737;-71
2023/01/25 04:53:30;;;;;;;0.10;0.10;;;;;;;;;;7375633;19;20671;-71
2023/01/25 04:56:02;;;;;;;0.10;0.10;;;;;;;;;;7375325;19;20637;-71
2023/01/25 04:58:38;;;;;;;0.10;0.10;;;;;;;;;;7374320;19;20626;-71
2023/01/25 05:01:07;;;;;;;0.10;0.10;;;;;;;;;;7374367;19;20619;-71
2023/01/25 05:03:36;;;;;;;0.10;0.10;;;;;;;;;;7373761;19;20665;-72
2023/01/25 05:06:08;;;;;;;0.10;0.10;;;;;;;;;;7373670;19;20634;-71
2023/01/25 05:08:37;;;;;;;0.03;0.03;;;;;;;;;;7377022;19;20620;-71
2023/01/25 05:11:07;;;;;;;0.10;0.10;;;;;;;;;;7377690;19;20630;-71
2023/01/25 05:13:54;;;;;;;0.10;0.10;;;;;;;;;;7380685;19;20624;-71
2023/01/25 05:16:30;;;;;;;0.10;0.10;;;;;;;;;;7377143;19;20664;-71
2023/01/25 05:19:01;;;;;;;0.10;0.10;;;;;;;;;;7378106;19;20610;-71
2023/01/25 05:22:00;;;;;;;0.10;0.10;;;;;;;;;;7376630;19;20666;-71
2023/01/25 05:24:35;;;;;;;0.10;0.10;;;;;;;;;;7375709;19;20626;-71
2023/01/25 05:27:05;;;;;;;0.10;0.10;;;;;;;;;;7378177;19;20619;-72
2023/01/25 05:29:55;;;;;;;0.10;0.10;;;;;;;;;;7377247;19;20622;-70
2023/01/25 05:32:36;;;;;;;0.10;0.10;;;;;;;;;;7376795;19;20658;-71
2023/01/25 05:35:05;;;;;;;0.10;0.10;;;;;;;;;;7376229;19;20631;-71
2023/01/25 05:37:34;;;;;;;0.10;0.10;;;;;;;;;;7375533;19;20630;-71
2023/01/25 05:40:07;;;;;;;0.10;0.10;;;;;;;;;;7377073;19;20744;-71
2023/01/25 05:42:39;;;;;;;0.10;0.10;;;;;;;;;;7374945;19;20725;-71
2023/01/25 05:45:17;;;;;;;0.10;0.10;;;;;;;;;;7374810;19;20661;-70
2023/01/25 05:47:48;;;;;;;0.10;0.10;;;;;;;;;;7376130;19;20762;-72
2023/01/25 05:50:17;;;;;;;0.10;0.10;;;;;;;;;;7377657;19;20690;-71
2023/01/25 05:52:55;;;;;;;0.10;0.10;;;;;;;;;;7375649;19;20813;-72
2023/01/25 05:55:25;;;;;;;0.10;0.10;;;;;;;;;;7377179;19;20683;-70
2023/01/25 05:57:57;;;;;;;0.10;0.10;;;;;;;;;;7375699;19;20675;-70
2023/01/25 06:00:29;;;;;;;0.10;0.10;;;;;;;;;;7377584;19;20780;-71
2023/01/25 06:02:58;;;;;;;0.10;0.10;;;;;;;;;;7375749;19;20666;-71
2023/01/25 06:05:27;;;;;;;0.10;0.10;;;;;;;;;;7373876;19;20689;-71
2023/01/25 06:07:57;;;;;;;0.10;0.10;;;;;;;;;;7374082;19;20777;-72
2023/01/25 06:10:28;;;;;;;0.10;0.10;;;;;;;;;;7376227;19;20611;-70
2023/01/25 06:13:01;;;;;;;0.10;0.10;;;;;;;;;;7377013;19;20674;-72
2023/01/25 06:15:32;;;;;;;0.10;0.10;;;;;;;;;;7379057;19;20681;-73
2023/01/25 06:18:24;;;;;;;0.10;0.10;;;;;;;;;;7380654;19;20638;-71
2023/01/25 06:21:20;;;;;;;0.10;0.10;;;;;;;;;;7380199;19;20649;-71
2023/01/25 06:23:49;;;;;;;0.10;0.10;;;;;;;;;;7378784;19;20639;-71
2023/01/25 06:26:18;;;;;;;0.10;0.10;;;;;;;;;;7379695;19;20618;-71
2023/01/25 06:28:47;;;;;;;0.10;0.10;;;;;;;;;;7379445;19;20683;-71
2023/01/25 06:31:19;;;;;;;0.10;0.10;;;;;;;;;;7378898;19;20669;-70
2023/01/25 06:33:50;;;;;;;0.10;0.10;;;;;;;;;;7380196;19;20753;-72
2023/01/25 06:36:22;;;;;;;0.10;0.10;;;;;;;;;;7381035;19;20156;-72
2023/01/25 06:38:51;;;;;;;0.10;0.10;;;;;;;;;;7378203;19;20614;-72
2023/01/25 06:41:21;;;;;;;0.10;0.10;;;;;;;;;;7378148;19;20712;-72
2023/01/25 06:43:54;;;;;;;0.10;0.10;;;;;;;;;;7378166;19;20626;-72
2023/01/25 06:46:26;;;;;;;0.10;0.10;;;;;;;;;;7377737;19;20713;-72
2023/01/25 06:48:55;;;;;;;0.10;0.10;;;;;;;;;;7378087;19;20634;-72
2023/01/25 06:51:24;;;;;;;0.10;0.10;;;;;;;;;;7378382;19;20689;-72
2023/01/25 06:53:54;;;;;;;0.10;0.10;;;;;;;;;;7376976;19;20664;-72
2023/01/25 06:56:25;;;;;;;0.10;0.10;;;;;;;;;;7378919;19;20639;-72
2023/01/25 06:58:54;;;;;;;0.10;0.10;;;;;;;;;;7377998;19;20602;-72
2023/01/25 07:01:29;;;;;;;0.10;0.10;;;;;;;;;;7377952;19;20642;-72
2023/01/25 07:03:59;;;;;;;0.20;0.20;;;;;;;;;;7376057;19;20708;-72
2023/01/25 07:06:33;;;;;;;0.10;0.10;;;;;;;;;;7379427;19;20665;-72
2023/01/25 07:09:04;;;;;;;0.10;0.10;;;;;;;;;;7377276;19;20634;-72
2023/01/25 07:11:34;;;;;;;0.10;0.10;;;;;;;;;;7377399;19;20658;-72
2023/01/25 07:14:03;;;;;;;0.10;0.10;;;;;;;;;;7376219;19;20614;-72
2023/01/25 07:16:38;;;;;;;0.20;0.20;;;;;;;;;;7378008;19;20603;-73
2023/01/25 07:19:07;;;;;;;0.10;0.10;;;;;;;;;;7378070;19;20626;-72
2023/01/25 07:21:36;;;;;;;0.10;0.10;;;;;;;;;;7375531;19;20650;-72
2023/01/25 07:24:06;;;;;;;0.10;0.10;;;;;;;;;;7377287;19;20623;-72
2023/01/25 07:26:35;;;;;;;0.10;0.10;;;;;;;;;;7378176;19;20657;-72
2023/01/25 07:29:05;;;;;;;0.10;0.10;;;;;;;;;;7377661;19;20611;-72
2023/01/25 07:31:36;;;;;;;0.13;0.13;;;;;;;;;;7376057;19;20749;-72
2023/01/25 07:34:06;;;;;;;0.10;0.10;;;;;;;;;;7378017;19;20607;-72
2023/01/25 07:36:35;;;;;;;0.10;0.10;;;;;;;;;;7377482;19;20622;-72
2023/01/25 07:39:04;;;;;;;0.10;0.10;;;;;;;;;;7377478;19;20627;-72
2023/01/25 07:41:33;;;;;;;0.10;0.10;;;;;;;;;;7376199;19;20674;-73
2023/01/25 07:44:02;;;;;;;0.10;0.10;;;;;;;;;;7376312;19;20615;-73
2023/01/25 07:46:40;;;;;;;0.10;0.10;;;;;;;;;;7376913;19;20615;-73
2023/01/25 07:49:09;;;;;;;0.10;0.10;;;;;;;;;;7376771;19;20647;-72
2023/01/25 07:51:39;;;;;;;0.10;0.10;;;;;;;;;;7375554;19;20663;-72
2023/01/25 07:54:08;;;;;;;0.10;0.10;;;;;;;;;;7376475;19;20665;-72
2023/01/25 07:56:39;;;;;;;0.10;0.10;;;;;;;;;;7377003;19;20627;-72
2023/01/25 07:59:09;;;;;;;0.10;0.10;;;;;;;;;;7375998;19;20643;-73
2023/01/25 08:01:42;;;;;;;0.17;0.17;;;;;;;;;;7375339;19;20655;-72
2023/01/25 08:04:11;;;;;;;0.10;0.10;;;;;;;;;;7374619;19;20733;-73
2023/01/25 08:06:43;;;;;;;0.10;0.10;;;;;;;;;;7376182;19;20615;-73
2023/01/25 08:09:14;;;;;;;0.10;0.10;;;;;;;;;;7375532;19;20677;-72
2023/01/25 08:11:48;;;;;;;0.10;0.10;;;;;;;;;;7375507;19;20675;-73
2023/01/25 08:14:23;;;;;;;0.10;0.10;;;;;;;;;;7375008;19;20602;-72
2023/01/25 08:16:55;;;;;;;0.10;0.10;;;;;;;;;;7376026;19;20685;-73
2023/01/25 08:19:25;;;;;;;0.10;0.10;;;;;;;;;;7374980;19;20675;-73
2023/01/25 08:21:54;;;;;;;0.10;0.10;;;;;;;;;;7374134;19;20682;-73
2023/01/25 08:24:23;;;;;;;0.10;0.10;;;;;;;;;;7375279;19;20654;-73
2023/01/25 08:26:53;;;;;;;0.10;0.10;;;;;;;;;;7374507;19;20705;-73
2023/01/25 08:29:23;;;;;;;0.10;0.10;;;;;;;;;;7374797;19;20619;-72
2023/01/25 08:31:56;;;;;;;0.10;0.10;;;;;;;;;;7371871;19;20689;-72
2023/01/25 08:34:26;;;;;;;0.10;0.10;;;;;;;;;;7374654;19;20646;-73
2023/01/25 08:36:55;;;;;;;0.10;0.10;;;;;;;;;;7373542;19;20683;-72
2023/01/25 08:39:24;;;;;;;0.10;0.10;;;;;;;;;;7373894;19;20689;-72
2023/01/25 08:41:53;;;;;;;0.10;0.10;;;;;;;;;;7373233;19;20792;-72
2023/01/25 08:44:24;;;;;;;0.10;0.10;;;;;;;;;;7373719;19;20626;-73
2023/01/25 08:46:56;;;;;;;0.10;0.10;;;;;;;;;;7375244;19;20686;-72
2023/01/25 08:49:26;;;;;;;0.10;0.10;;;;;;;;;;7374782;19;20626;-72
2023/01/25 08:51:58;;;;;;;0.10;0.10;;;;;;;;;;7373069;19;20709;-72
2023/01/25 08:54:27;;;;;;;0.10;0.10;;;;;;;;;;7374529;19;20670;-71
2023/01/25 08:56:56;;;;;;;0.10;0.10;;;;;;;;;;7375388;19;20631;-72
2023/01/25 08:59:25;;;;;;;0.10;0.10;;;;;;;;;;7373819;19;20689;-72
2023/01/25 09:01:57;;;;;;;0.10;0.10;;;;;;;;;;7373873;19;20735;-72
2023/01/25 09:04:27;;;;;;;0.10;0.10;;;;;;;;;;7373713;19;20622;-71
2023/01/25 09:06:56;;;;;;;0.10;0.10;;;;;;;;;;7374361;19;20639;-72
2023/01/25 09:09:25;;;;;;;0.10;0.10;;;;;;;;;;7374954;19;20619;-72
2023/01/25 09:11:54;;;;;;;0.10;0.10;;;;;;;;;;7373367;19;20663;-73
2023/01/25 09:14:24;;;;;;;0.10;0.10;;;;;;;;;;7372932;19;20681;-72
2023/01/25 09:16:53;;;;;;;0.10;0.10;;;;;;;;;;7374443;19;20619;-73
2023/01/25 09:19:25;;;;;;;0.10;0.10;;;;;;;;;;7374152;19;20653;-73
2023/01/25 09:21:54;;;;;;;0.10;0.10;;;;;;;;;;7371786;19;20690;-72
2023/01/25 09:24:23;;;;;;;0.10;0.10;;;;;;;;;;7372936;19;20641;-72
2023/01/25 09:26:52;;;;;;;0.10;0.10;;;;;;;;;;7372688;19;20654;-73
2023/01/25 09:29:21;;;;;;;0.10;0.10;;;;;;;;;;7374144;19;20691;-73
2023/01/25 09:31:50;;;;;;;0.10;0.10;;;;;;;;;;7372171;19;20674;-72
2023/01/25 09:34:36;;;;;;;0.10;0.10;;;;;;;;;;7373784;19;20645;-72
2023/01/25 09:37:05;;;;;;;0.10;0.10;;;;;;;;;;7373642;19;20599;-72
2023/01/25 09:39:35;;;;;;;0.10;0.10;;;;;;;;;;7374053;19;20610;-73
2023/01/25 09:42:12;;;;;;;0.10;0.10;;;;;;;;;;7371604;19;20655;-73
2023/01/25 09:44:51;;;;;;;0.10;0.10;;;;;;;;;;7377507;19;20610;-73
2023/01/25 09:47:23;;;;;;;0.10;0.10;;;;;;;;;;7380236;19;20663;-73
2023/01/25 09:50:03;;;;;;;0.10;0.10;;;;;;;;;;7380232;19;20683;-72
2023/01/25 09:52:41;;;;;;;0.10;0.10;;;;;;;;;;7379212;19;20634;-72
2023/01/25 09:55:15;;;;;;;0.10;0.10;;;;;;;;;;7379480;19;20721;-72
2023/01/25 09:57:45;;;;;;;0.10;0.10;;;;;;;;;;7379931;19;20675;-72
2023/01/25 10:00:18;;;;;;;0.10;0.10;;;;;;;;;;7379471;19;20646;-71
2023/01/25 10:02:50;;;;;;;0.10;0.10;;;;;;;;;;7378020;19;20682;-72
2023/01/25 10:05:24;;;;;;;0.10;0.10;;;;;;;;;;7378542;19;20619;-73
2023/01/25 10:07:58;;;;;;;0.10;0.10;;;;;;;;;;7379989;19;20614;-72
2023/01/25 10:10:32;;;;;;;0.10;0.10;;;;;;;;;;7379933;19;20622;-72
2023/01/25 10:13:01;;;;;;;0.10;0.10;;;;;;;;;;7377716;19;20684;-72
2023/01/25 10:15:33;;;;;;;0.10;0.10;;;;;;;;;;7379404;19;20728;-72
2023/01/25 10:18:06;;;;;;;0.10;0.10;;;;;;;;;;7379372;19;20701;-71
2023/01/25 10:20:42;;;;;;;0.10;0.10;;;;;;;;;;7380434;19;20622;-72
2023/01/25 10:23:28;;;;;;;0.00;0.00;;;;;;;;;;7375994;19;20768;-72
2023/01/25 10:26:00;;;;;;;0.10;0.10;;;;;;;;;;7378308;19;20691;-72
2023/01/25 10:28:36;;;;;;;0.10;0.10;;;;;;;;;;7379425;19;20662;-72
2023/01/25 10:31:07;;;;;;;0.10;0.10;;;;;;;;;;7378536;19;20680;-72
2023/01/25 10:33:39;;;;;;;0.10;0.10;;;;;;;;;;7378866;19;20626;-72
2023/01/25 10:36:15;;;;;;;0.10;0.10;;;;;;;;;;7379798;19;20622;-72
2023/01/25 10:38:46;;;;;;;0.10;0.10;;;;;;;;;;7380209;19;20634;-72
2023/01/25 10:41:17;;;;;;;0.10;0.10;;;;;;;;;;7379162;19;20650;-72
2023/01/25 10:43:46;;;;;;;0.10;0.10;;;;;;;;;;7379450;19;20623;-72
2023/01/25 10:46:23;;;;;;;0.13;0.13;;;;;;;;;;7378031;19;20643;-72
2023/01/25 10:48:52;;;;;;;0.10;0.10;;;;;;;;;;7378700;19;20630;-72
2023/01/25 10:51:34;;;;;;;0.10;0.10;;;;;;;;;;7378659;19;20642;-72
2023/01/25 10:54:04;;;;;;;0.10;0.10;;;;;;;;;;7378333;19;20740;-72
2023/01/25 10:56:35;;;;;;;0.10;0.10;;;;;;;;;;7376786;19;20638;-72
2023/01/25 10:59:17;;;;;;;0.10;0.10;;;;;;;;;;7378008;19;20634;-72
2023/01/25 11:01:46;;;;;;;0.10;0.10;;;;;;;;;;7377964;19;20704;-72
2023/01/25 11:04:30;;;;;;;0.10;0.10;;;;;;;;;;7378353;19;20630;-72
2023/01/25 11:07:04;;;;;;;0.10;0.10;;;;;;;;;;7375878;19;20630;-72
2023/01/25 11:09:38;;;;;;;0.10;0.10;;;;;;;;;;7378693;19;20687;-72
2023/01/25 11:12:08;;;;;;;0.10;0.10;;;;;;;;;;7376822;19;20705;-72
2023/01/25 11:14:38;;;;;;;0.10;0.10;;;;;;;;;;7379115;19;20619;-72
2023/01/25 11:17:08;;;;;;;0.10;0.10;;;;;;;;;;7377226;19;20667;-73
2023/01/25 11:19:38;;;;;;;0.10;0.10;;;;;;;;;;7379164;19;20662;-73
2023/01/25 11:22:27;;;;;;;0.10;0.10;;;;;;;;;;7376323;19;20707;-72
2023/01/25 11:24:56;;;;;;;0.10;0.10;;;;;;;;;;7378189;19;20631;-73
2023/01/25 11:27:26;;;;;;;0.10;0.10;;;;;;;;;;7376071;19;20639;-73
2023/01/25 11:30:09;;;;;;;0.10;0.10;;;;;;;;;;7377945;19;20644;-72
2023/01/25 11:32:39;;;;;;;0.10;0.10;;;;;;;;;;7377496;19;20692;-72
2023/01/25 11:35:14;;;;;;;0.10;0.10;;;;;;;;;;7376986;19;20662;-72
2023/01/25 11:38:01;;;;;;;0.10;0.10;;;;;;;;;;7379021;19;20678;-72
2023/01/25 11:40:35;;;;;;;0.10;0.10;;;;;;;;;;7379206;19;20599;-72
2023/01/25 11:43:08;;;;;;;0.10;0.10;;;;;;;;;;7376201;19;20666;-72
2023/01/25 11:45:48;;;;;;;0.20;0.20;;;;;;;;;;7375889;19;20630;-72
2023/01/25 11:48:25;;;;;;;0.10;0.10;;;;;;;;;;7376686;19;20622;-72
2023/01/25 11:51:00;;;;;;;0.10;0.10;;;;;;;;;;7376231;19;20622;-72
2023/01/25 11:53:37;;;;;;;0.10;0.10;;;;;;;;;;7376784;19;20663;-73
2023/01/25 11:56:10;;;;;;;0.10;0.10;;;;;;;;;;7377185;19;20657;-73
2023/01/25 11:58:52;;;;;;;0.10;0.10;;;;;;;;;;7377533;19;20627;-72
2023/01/25 12:01:24;;;;;;;0.10;0.10;;;;;;;;;;7376091;19;20650;-72
2023/01/25 12:04:02;;;;;;;0.10;0.10;;;;;;;;;;7375383;19;20707;-72
2023/01/25 12:06:35;;;;;;;0.10;0.10;;;;;;;;;;7373280;19;20679;-72
2023/01/25 12:09:12;;;;;;;0.10;0.10;;;;;;;;;;7374425;19;20618;-72
2023/01/25 12:11:47;;;;;;;0.10;0.10;;;;;;;;;;7375444;19;20693;-72
2023/01/25 12:14:21;;;;;;;0.10;0.10;;;;;;;;;;7375497;19;20694;-72
2023/01/25 12:16:59;;;;;;;0.10;0.10;;;;;;;;;;7376780;19;20693;-72
2023/01/25 12:19:41;;;;;;;0.10;0.10;;;;;;;;;;7375375;19;20699;-72
2023/01/25 12:22:25;;;;;;;0.10;0.10;;;;;;;;;;7374848;19;20743;-72
2023/01/25 12:25:00;;;;;;;0.10;0.10;;;;;;;;;;7374969;19;20626;-73
2023/01/25 12:27:35;;;;;;;0.00;0.00;;;;;;;;;;7373613;19;20696;-71
2023/01/25 12:30:12;;;;;;;0.10;0.10;;;;;;;;;;7374050;19;20630;-73
2023/01/25 12:32:44;;;;;;;0.10;0.10;;;;;;;;;;7374563;19;20667;-71
2023/01/25 12:35:23;;;;;;;0.20;0.20;;;;;;;;;;7372110;19;20623;-71
2023/01/25 12:37:55;;;;;;;0.10;0.10;;;;;;;;;;7376203;19;20660;-71
2023/01/25 12:40:30;;;;;;;0.10;0.10;;;;;;;;;;7373758;19;20667;-73
2023/01/25 12:43:00;;;;;;;0.10;0.10;;;;;;;;;;7372688;19;20814;-73
2023/01/25 12:45:34;;;;;;;0.10;0.10;;;;;;;;;;7372901;19;20627;-73
2023/01/25 12:48:04;;;;;;;0.10;0.10;;;;;;;;;;7374095;19;20623;-73
2023/01/25 12:50:38;;;;;;;0.10;0.10;;;;;;;;;;7374839;19;20675;-73
2023/01/25 12:53:09;;;;;;;0.10;0.10;;;;;;;;;;7372878;19;20769;-71
2023/01/25 12:55:41;;;;;;;0.10;0.10;;;;;;;;;;7375169;19;20615;-71
2023/01/25 12:58:17;;;;;;;0.10;0.10;;;;;;;;;;7373695;19;20777;-71
2023/01/25 13:00:54;;;;;;;0.00;0.00;;;;;;;;;;7375934;19;20675;-71
2023/01/25 13:03:28;;;;;;;0.10;0.10;;;;;;;;;;7373844;19;20623;-73
2023/01/25 13:06:00;;;;;;;0.10;0.10;;;;;;;;;;7373887;19;20615;-71
2023/01/25 13:08:35;;;;;;;0.10;0.10;;;;;;;;;;7373757;19;20615;-73
2023/01/25 13:11:14;;;;;;;0.10;0.10;;;;;;;;;;7372784;19;20682;-71
2023/01/25 13:13:43;;;;;;;0.10;0.10;;;;;;;;;;7373564;19;20674;-72
2023/01/25 13:16:26;;;;;;;0.10;0.10;;;;;;;;;;7373580;19;20661;-72
2023/01/25 13:18:58;;;;;;;0.10;0.10;;;;;;;;;;7376913;19;20610;-72
2023/01/25 13:21:43;;;;;;;0.10;0.10;;;;;;;;;;7382090;19;20793;-72
2023/01/25 13:24:23;;;;;;;0.10;0.10;;;;;;;;;;7379497;19;20614;-72
2023/01/25 13:27:05;;;;;;;0.10;0.10;;;;;;;;;;7381006;19;20673;-72
2023/01/25 13:29:55;;;;;;;0.10;0.10;;;;;;;;;;7381472;19;20771;-72
2023/01/25 13:32:39;;;;;;;0.07;0.07;;;;;;;;;;7379221;19;20680;-72
2023/01/25 13:35:27;;;;;;;0.10;0.10;;;;;;;;;;7379724;19;20627;-72
2023/01/25 13:38:00;;;;;;;0.10;0.10;;;;;;;;;;7381144;19;20676;-72
2023/01/25 13:40:32;;;;;;;0.10;0.10;;;;;;;;;;7380087;19;20634;-71
2023/01/25 13:43:06;;;;;;;0.10;0.10;;;;;;;;;;7377592;19;20761;-72
2023/01/25 13:45:40;;;;;;;0.10;0.10;;;;;;;;;;7380214;19;20626;-72
2023/01/25 13:48:17;;;;;;;0.10;0.10;;;;;;;;;;7378089;19;20634;-72
2023/01/25 13:50:51;;;;;;;0.10;0.10;;;;;;;;;;7381384;19;20626;-71
2023/01/25 13:53:28;;;;;;;0.20;0.20;;;;;;;;;;7380781;19;20622;-72
2023/01/25 13:55:58;;;;;;;0.10;0.10;;;;;;;;;;7382506;19;20721;-71
2023/01/25 13:58:36;;;;;;;0.10;0.10;;;;;;;;;;7380066;19;20653;-72
2023/01/25 14:01:09;;;;;;;0.10;0.10;;;;;;;;;;7380404;19;20687;-72
2023/01/25 14:03:39;;;;;;;0.10;0.10;;;;;;;;;;7380144;19;20689;-72
2023/01/25 14:06:18;;;;;;;0.10;0.10;;;;;;;;;;7380891;19;20622;-72
2023/01/25 14:08:50;;;;;;;0.10;0.10;;;;;;;;;;7380532;19;20610;-72
2023/01/25 14:11:21;;;;;;;0.10;0.10;;;;;;;;;;7379026;19;20662;-72
2023/01/25 14:14:06;;;;;;;0.10;0.10;;;;;;;;;;7380758;19;20773;-72
2023/01/25 14:16:35;;;;;;;0.10;0.10;;;;;;;;;;7381139;19;20796;-72
2023/01/25 14:19:19;;;;;;;0.10;0.10;;;;;;;;;;7378713;19;20675;-72
2023/01/25 14:21:49;;;;;;;0.10;0.10;;;;;;;;;;7378509;19;20685;-72
2023/01/25 14:24:20;;;;;;;0.17;0.17;;;;;;;;;;7377535;19;20669;-72
2023/01/25 14:26:49;;;;;;;0.20;0.20;;;;;;;;;;7379086;19;20642;-73
2023/01/25 14:29:25;;;;;;;0.10;0.10;;;;;;;;;;7378544;19;20635;-72
2023/01/25 14:31:54;;;;;;;0.10;0.10;;;;;;;;;;7377291;19;20793;-72
2023/01/25 14:34:23;;;;;;;0.10;0.10;;;;;;;;;;7377655;19;20665;-72
2023/01/25 14:46:26;;;;;;;0.10;0.10;;;;;;;;;;7377788;19;20693;-73
2023/01/25 14:49:08;;;;;;;0.10;0.10;;;;;;;;;;7378442;19;20614;-72
2023/01/25 14:51:42;;;;;;;0.17;0.17;;;;;;;;;;7377964;19;20670;-72
2023/01/25 14:54:16;;;;;;;0.10;0.10;;;;;;;;;;7378030;19;20623;-72
2023/01/25 14:56:46;;;;;;;0.10;0.10;;;;;;;;;;7380432;19;20627;-72
2023/01/25 14:59:28;;;;;;;0.10;0.10;;;;;;;;;;7376983;19;20657;-73
2023/01/25 15:02:03;;;;;;;0.10;0.10;;;;;;;;;;7377149;19;20791;-72
2023/01/25 15:04:32;;;;;;;0.10;0.10;;;;;;;;;;7376861;19;20622;-72
2023/01/25 15:07:01;;;;;;;0.20;0.20;;;;;;;;;;7377421;19;20635;-73
2023/01/25 15:09:34;;;;;;;0.10;0.10;;;;;;;;;;7376426;19;20626;-73
2023/01/25 15:12:03;;;;;;;0.10;0.10;;;;;;;;;;7377989;19;20700;-72
2023/01/25 15:14:33;;;;;;;0.10;0.10;;;;;;;;;;7375370;19;20611;-73
2023/01/25 15:17:05;;;;;;;0.10;0.10;;;;;;;;;;7377696;19;20619;-73
2023/01/25 15:19:34;;;;;;;0.20;0.20;;;;;;;;;;7377525;19;20614;-72
2023/01/25 15:22:03;;;;;;;0.17;0.17;;;;;;;;;;7376809;19;20667;-73
2023/01/25 15:24:33;;;;;;;0.10;0.10;;;;;;;;;;7377020;19;20606;-73